sensor_id;sensor_type;location;lat;lon;timestamp;pressure;altitude;pressure_sealevel;temperature;humidity
16461;BME280;8341;42.048;24.650;2023-04-25T00:00:55;96500.84;;;13.51;100.00
16461;BME280;8341;42.048;24.650;2023-04-25T00:03:22;96489.59;;;13.60;100.00
16461;BME280;8341;42.048;24.650;2023-04-25T00:05:50;96492.56;;;13.62;100.00
16461;BME280;8341;42.048;24.650;2023-04-25T00:08:17;96489.03;;;13.67;100.00
16461;BME280;8341;42.048;24.650;2023-04-25T00:10:44;96489.88;;;13.56;100.00
16461;BME280;8341;42.048;24.650;2023-04-25T00:13:11;96488.81;;;13.65;100.00
16461;BME280;8341;42.048;24.650;2023-04-25T00:15:40;96492.00;;;13.69;100.00
16461;BME280;8341;42.048;24.650;2023-04-25T00:18:07;96491.31;;;13.63;100.00
16461;BME280;8341;42.048;24.650;2023-04-25T00:20:35;96479.28;;;13.42;100.00
16461;BME280;8341;42.048;24.650;2023-04-25T00:23:02;96481.00;;;13.45;100.00
16461;BME280;8341;42.048;24.650;2023-04-25T00:25:28;96475.97;;;13.49;100.00
16461;BME280;8341;42.048;24.650;2023-04-25T00:27:55;96482.94;;;13.50;100.00
16461;BME280;8341;42.048;24.650;2023-04-25T00:30:22;96476.47;;;13.53;100.00
16461;BME280;8341;42.048;24.650;2023-04-25T00:32:50;96466.59;;;13.39;100.00
16461;BME280;8341;42.048;24.650;2023-04-25T00:35:17;96464.59;;;13.39;100.00
16461;BME280;8341;42.048;24.650;2023-04-25T00:37:44;96456.75;;;13.25;100.00
16461;BME280;8341;42.048;24.650;2023-04-25T00:40:11;96452.34;;;13.05;100.00
16461;BME280;8341;42.048;24.650;2023-04-25T00:42:38;96454.88;;;12.97;100.00
16461;BME280;8341;42.048;24.650;2023-04-25T00:45:06;96459.38;;;12.95;100.00
16461;BME280;8341;42.048;24.650;2023-04-25T00:47:36;96453.44;;;12.91;100.00
16461;BME280;8341;42.048;24.650;2023-04-25T00:50:05;96458.16;;;12.96;100.00
16461;BME280;8341;42.048;24.650;2023-04-25T00:52:32;96461.84;;;12.98;100.00
16461;BME280;8341;42.048;24.650;2023-04-25T00:54:59;96457.78;;;12.70;100.00
16461;BME280;8341;42.048;24.650;2023-04-25T00:57:26;96462.03;;;12.65;100.00
16461;BME280;8341;42.048;24.650;2023-04-25T00:59:54;96472.91;;;12.76;100.00
16461;BME280;8341;42.048;24.650;2023-04-25T01:02:21;96462.44;;;12.80;100.00
16461;BME280;8341;42.048;24.650;2023-04-25T01:04:48;96460.00;;;12.71;100.00
16461;BME280;8341;42.048;24.650;2023-04-25T01:07:16;96466.31;;;12.55;100.00
16461;BME280;8341;42.048;24.650;2023-04-25T01:09:43;96469.09;;;12.38;100.00
16461;BME280;8341;42.048;24.650;2023-04-25T01:12:10;96465.88;;;12.34;100.00
16461;BME280;8341;42.048;24.650;2023-04-25T01:14:37;96473.31;;;12.45;100.00
16461;BME280;8341;42.048;24.650;2023-04-25T01:17:04;96470.03;;;12.52;100.00
16461;BME280;8341;42.048;24.650;2023-04-25T01:19:33;96468.31;;;12.49;100.00
16461;BME280;8341;42.048;24.650;2023-04-25T01:22:01;96468.03;;;12.58;100.00
16461;BME280;8341;42.048;24.650;2023-04-25T01:24:29;96467.22;;;12.69;100.00
16461;BME280;8341;42.048;24.650;2023-04-25T01:26:56;96476.16;;;12.75;100.00
16461;BME280;8341;42.048;24.650;2023-04-25T01:29:23;96475.13;;;12.83;100.00
16461;BME280;8341;42.048;24.650;2023-04-25T01:31:51;96468.38;;;12.90;100.00
16461;BME280;8341;42.048;24.650;2023-04-25T01:34:19;96470.84;;;12.93;100.00
16461;BME280;8341;42.048;24.650;2023-04-25T01:36:47;96465.09;;;12.97;100.00
16461;BME280;8341;42.048;24.650;2023-04-25T01:39:16;96463.41;;;12.88;100.00
16461;BME280;8341;42.048;24.650;2023-04-25T01:41:43;96463.63;;;12.96;100.00
16461;BME280;8341;42.048;24.650;2023-04-25T01:44:11;96453.00;;;12.81;100.00
16461;BME280;8341;42.048;24.650;2023-04-25T01:46:37;96456.22;;;12.80;100.00
16461;BME280;8341;42.048;24.650;2023-04-25T01:49:04;96465.97;;;12.75;100.00
16461;BME280;8341;42.048;24.650;2023-04-25T01:51:31;96456.50;;;12.76;100.00
16461;BME280;8341;42.048;24.650;2023-04-25T01:53:59;96451.63;;;12.58;100.00
16461;BME280;8341;42.048;24.650;2023-04-25T01:56:30;96456.13;;;12.50;100.00
16461;BME280;8341;42.048;24.650;2023-04-25T01:58:57;96458.44;;;12.35;100.00
16461;BME280;8341;42.048;24.650;2023-04-25T02:01:24;96460.63;;;12.42;100.00
16461;BME280;8341;42.048;24.650;2023-04-25T02:03:50;96444.22;;;12.42;100.00
16461;BME280;8341;42.048;24.650;2023-04-25T02:06:17;96437.78;;;12.39;100.00
16461;BME280;8341;42.048;24.650;2023-04-25T02:08:44;96449.19;;;12.43;100.00
16461;BME280;8341;42.048;24.650;2023-04-25T02:11:11;96454.44;;;12.36;100.00
16461;BME280;8341;42.048;24.650;2023-04-25T02:13:39;96452.91;;;12.46;100.00
16461;BME280;8341;42.048;24.650;2023-04-25T02:16:06;96451.38;;;12.56;100.00
16461;BME280;8341;42.048;24.650;2023-04-25T02:18:32;96452.09;;;12.62;100.00
16461;BME280;8341;42.048;24.650;2023-04-25T02:20:59;96445.34;;;12.69;100.00
16461;BME280;8341;42.048;24.650;2023-04-25T02:23:26;96445.34;;;12.69;100.00
16461;BME280;8341;42.048;24.650;2023-04-25T02:25:53;96441.56;;;12.77;100.00
16461;BME280;8341;42.048;24.650;2023-04-25T02:28:20;96443.03;;;12.84;100.00
16461;BME280;8341;42.048;24.650;2023-04-25T02:30:48;96445.03;;;12.83;100.00
16461;BME280;8341;42.048;24.650;2023-04-25T02:33:15;96444.28;;;12.83;100.00
16461;BME280;8341;42.048;24.650;2023-04-25T02:35:42;96441.09;;;12.79;100.00
16461;BME280;8341;42.048;24.650;2023-04-25T02:38:09;96441.09;;;12.79;100.00
16461;BME280;8341;42.048;24.650;2023-04-25T02:40:36;96444.31;;;12.77;100.00
16461;BME280;8341;42.048;24.650;2023-04-25T02:43:02;96435.56;;;12.84;100.00
16461;BME280;8341;42.048;24.650;2023-04-25T02:45:29;96439.03;;;12.85;100.00
16461;BME280;8341;42.048;24.650;2023-04-25T02:47:57;96452.94;;;12.87;100.00
16461;BME280;8341;42.048;24.650;2023-04-25T02:50:24;96448.97;;;12.88;100.00
16461;BME280;8341;42.048;24.650;2023-04-25T02:52:51;96458.94;;;12.85;100.00
16461;BME280;8341;42.048;24.650;2023-04-25T02:55:18;96456.97;;;12.80;100.00
16461;BME280;8341;42.048;24.650;2023-04-25T02:57:45;96455.22;;;12.83;100.00
16461;BME280;8341;42.048;24.650;2023-04-25T03:00:12;96451.94;;;12.90;100.00
16461;BME280;8341;42.048;24.650;2023-04-25T03:02:40;96454.19;;;12.91;100.00
16461;BME280;8341;42.048;24.650;2023-04-25T03:05:08;96453.69;;;12.87;100.00
16461;BME280;8341;42.048;24.650;2023-04-25T03:07:35;96463.19;;;12.81;100.00
16461;BME280;8341;42.048;24.650;2023-04-25T03:10:02;96451.00;;;12.76;100.00
16461;BME280;8341;42.048;24.650;2023-04-25T03:12:29;96451.00;;;12.76;100.00
16461;BME280;8341;42.048;24.650;2023-04-25T03:14:55;96452.56;;;12.66;100.00
16461;BME280;8341;42.048;24.650;2023-04-25T03:17:22;96450.59;;;12.61;100.00
16461;BME280;8341;42.048;24.650;2023-04-25T03:19:49;96458.53;;;12.65;100.00
16461;BME280;8341;42.048;24.650;2023-04-25T03:22:17;96454.81;;;12.68;100.00
16461;BME280;8341;42.048;24.650;2023-04-25T03:24:44;96452.31;;;12.64;100.00
16461;BME280;8341;42.048;24.650;2023-04-25T03:27:11;96444.88;;;12.65;100.00
16461;BME280;8341;42.048;24.650;2023-04-25T03:29:37;96437.66;;;12.67;100.00
16461;BME280;8341;42.048;24.650;2023-04-25T03:32:05;96434.91;;;12.67;100.00
16461;BME280;8341;42.048;24.650;2023-04-25T03:34:32;96432.63;;;12.71;100.00
16461;BME280;8341;42.048;24.650;2023-04-25T03:36:59;96428.66;;;12.72;100.00
16461;BME280;8341;42.048;24.650;2023-04-25T03:39:27;96427.22;;;12.66;100.00
16461;BME280;8341;42.048;24.650;2023-04-25T03:41:55;96420.78;;;12.63;100.00
16461;BME280;8341;42.048;24.650;2023-04-25T03:44:21;96417.81;;;12.55;100.00
16461;BME280;8341;42.048;24.650;2023-04-25T03:46:49;96415.88;;;12.45;100.00
16461;BME280;8341;42.048;24.650;2023-04-25T03:49:16;96406.94;;;12.39;100.00
16461;BME280;8341;42.048;24.650;2023-04-25T03:51:43;96409.44;;;12.37;100.00
16461;BME280;8341;42.048;24.650;2023-04-25T03:54:09;96408.94;;;12.38;100.00
16461;BME280;8341;42.048;24.650;2023-04-25T03:56:37;96406.00;;;12.31;100.00
16461;BME280;8341;42.048;24.650;2023-04-25T03:59:04;96408.22;;;12.32;100.00
16461;BME280;8341;42.048;24.650;2023-04-25T04:01:31;96411.44;;;12.36;100.00
16461;BME280;8341;42.048;24.650;2023-04-25T04:03:58;96415.66;;;12.37;100.00
16461;BME280;8341;42.048;24.650;2023-04-25T04:06:24;96410.91;;;12.38;100.00
16461;BME280;8341;42.048;24.650;2023-04-25T04:08:51;96411.66;;;12.38;100.00
16461;BME280;8341;42.048;24.650;2023-04-25T04:11:19;96403.44;;;12.44;100.00
16461;BME280;8341;42.048;24.650;2023-04-25T04:13:48;96414.41;;;12.38;100.00
16461;BME280;8341;42.048;24.650;2023-04-25T04:16:14;96420.63;;;12.39;100.00
16461;BME280;8341;42.048;24.650;2023-04-25T04:18:41;96418.59;;;12.50;100.00
16461;BME280;8341;42.048;24.650;2023-04-25T04:21:08;96432.00;;;12.54;100.00
16461;BME280;8341;42.048;24.650;2023-04-25T04:23:35;96427.28;;;12.49;100.00
16461;BME280;8341;42.048;24.650;2023-04-25T04:26:02;96433.75;;;12.46;100.00
16461;BME280;8341;42.048;24.650;2023-04-25T04:28:30;96434.25;;;12.50;100.00
16461;BME280;8341;42.048;24.650;2023-04-25T04:30:58;96434.00;;;12.48;100.00
16461;BME280;8341;42.048;24.650;2023-04-25T04:33:26;96429.03;;;12.46;100.00
16461;BME280;8341;42.048;24.650;2023-04-25T04:35:53;96431.78;;;12.41;100.00
16461;BME280;8341;42.048;24.650;2023-04-25T04:38:21;96429.34;;;12.37;100.00
16461;BME280;8341;42.048;24.650;2023-04-25T04:40:47;96426.81;;;12.45;100.00
16461;BME280;8341;42.048;24.650;2023-04-25T04:43:15;96425.63;;;12.35;100.00
16461;BME280;8341;42.048;24.650;2023-04-25T04:45:44;96434.28;;;12.39;100.00
16461;BME280;8341;42.048;24.650;2023-04-25T04:48:12;96435.25;;;12.47;100.00
16461;BME280;8341;42.048;24.650;2023-04-25T04:50:39;96433.72;;;12.57;100.00
16461;BME280;8341;42.048;24.650;2023-04-25T04:53:07;96430.69;;;12.66;100.00
16461;BME280;8341;42.048;24.650;2023-04-25T04:55:33;96431.63;;;12.74;100.00
16461;BME280;8341;42.048;24.650;2023-04-25T04:58:00;96435.69;;;13.03;100.00
16461;BME280;8341;42.048;24.650;2023-04-25T05:00:27;96432.72;;;13.06;100.00
16461;BME280;8341;42.048;24.650;2023-04-25T05:02:54;96438.44;;;13.08;100.00
16461;BME280;8341;42.048;24.650;2023-04-25T05:05:22;96438.97;;;13.07;100.00
16461;BME280;8341;42.048;24.650;2023-04-25T05:07:49;96441.78;;;13.26;100.00
16461;BME280;8341;42.048;24.650;2023-04-25T05:10:16;96441.72;;;13.37;100.00
16461;BME280;8341;42.048;24.650;2023-04-25T05:12:43;96453.06;;;13.52;100.00
16461;BME280;8341;42.048;24.650;2023-04-25T05:15:10;96442.56;;;13.56;100.00
16461;BME280;8341;42.048;24.650;2023-04-25T05:17:37;96447.94;;;13.67;100.00
16461;BME280;8341;42.048;24.650;2023-04-25T05:20:06;96444.59;;;13.79;100.00
16461;BME280;8341;42.048;24.650;2023-04-25T05:22:36;96451.28;;;13.84;100.00
16461;BME280;8341;42.048;24.650;2023-04-25T05:25:03;96447.94;;;13.97;100.00
16461;BME280;8341;42.048;24.650;2023-04-25T05:27:30;96442.25;;;14.13;100.00
16461;BME280;8341;42.048;24.650;2023-04-25T05:29:56;96451.13;;;14.25;100.00
16461;BME280;8341;42.048;24.650;2023-04-25T05:32:23;96448.31;;;14.30;100.00
16461;BME280;8341;42.048;24.650;2023-04-25T05:34:50;96444.72;;;14.41;100.00
16461;BME280;8341;42.048;24.650;2023-04-25T05:37:17;96450.16;;;14.47;100.00
16461;BME280;8341;42.048;24.650;2023-04-25T05:39:45;96453.22;;;14.62;100.00
16461;BME280;8341;42.048;24.650;2023-04-25T05:42:12;96446.19;;;14.85;100.00
16461;BME280;8341;42.048;24.650;2023-04-25T05:44:39;96447.44;;;15.02;100.00
16461;BME280;8341;42.048;24.650;2023-04-25T05:47:06;96444.25;;;15.17;99.31
16461;BME280;8341;42.048;24.650;2023-04-25T05:49:34;96444.59;;;15.27;95.34
16461;BME280;8341;42.048;24.650;2023-04-25T05:52:00;96458.06;;;15.43;93.62
16461;BME280;8341;42.048;24.650;2023-04-25T05:54:27;96450.13;;;15.72;90.06
16461;BME280;8341;42.048;24.650;2023-04-25T05:56:56;96447.13;;;15.88;87.12
16461;BME280;8341;42.048;24.650;2023-04-25T05:59:22;96448.41;;;16.00;86.27
16461;BME280;8341;42.048;24.650;2023-04-25T06:01:50;96449.06;;;16.19;86.98
16461;BME280;8341;42.048;24.650;2023-04-25T06:04:17;96437.97;;;16.25;86.29
16461;BME280;8341;42.048;24.650;2023-04-25T06:06:43;96446.31;;;16.19;85.94
16461;BME280;8341;42.048;24.650;2023-04-25T06:09:10;96443.34;;;16.17;84.05
16461;BME280;8341;42.048;24.650;2023-04-25T06:11:37;96445.25;;;16.22;84.78
16461;BME280;8341;42.048;24.650;2023-04-25T06:14:05;96440.47;;;16.23;85.81
16461;BME280;8341;42.048;24.650;2023-04-25T06:16:32;96438.56;;;16.18;86.89
16461;BME280;8341;42.048;24.650;2023-04-25T06:18:59;96428.28;;;15.92;87.17
16461;BME280;8341;42.048;24.650;2023-04-25T06:21:26;96430.22;;;16.10;87.99
16461;BME280;8341;42.048;24.650;2023-04-25T06:23:53;96437.78;;;15.65;88.95
16461;BME280;8341;42.048;24.650;2023-04-25T06:26:19;96443.13;;;15.57;91.56
16461;BME280;8341;42.048;24.650;2023-04-25T06:28:46;96437.91;;;15.86;91.03
16461;BME280;8341;42.048;24.650;2023-04-25T06:31:15;96431.88;;;15.42;91.37
16461;BME280;8341;42.048;24.650;2023-04-25T06:33:42;96425.38;;;15.45;97.60
16461;BME280;8341;42.048;24.650;2023-04-25T06:36:09;96417.66;;;15.25;97.31
16461;BME280;8341;42.048;24.650;2023-04-25T06:38:36;96420.28;;;15.49;95.18
16461;BME280;8341;42.048;24.650;2023-04-25T06:41:02;96420.75;;;15.35;89.71
16461;BME280;8341;42.048;24.650;2023-04-25T06:43:30;96416.44;;;15.39;88.99
16461;BME280;8341;42.048;24.650;2023-04-25T06:45:58;96425.53;;;15.16;90.02
16461;BME280;8341;42.048;24.650;2023-04-25T06:48:27;96435.03;;;15.15;89.73
16461;BME280;8341;42.048;24.650;2023-04-25T06:50:54;96432.31;;;15.46;94.70
16461;BME280;8341;42.048;24.650;2023-04-25T06:53:22;96430.59;;;15.43;92.01
16461;BME280;8341;42.048;24.650;2023-04-25T06:55:48;96424.31;;;15.61;89.16
16461;BME280;8341;42.048;24.650;2023-04-25T06:58:15;96427.31;;;15.13;92.86
16461;BME280;8341;42.048;24.650;2023-04-25T07:00:42;96427.75;;;15.17;95.66
16461;BME280;8341;42.048;24.650;2023-04-25T07:03:09;96425.66;;;15.23;95.42
16461;BME280;8341;42.048;24.650;2023-04-25T07:05:37;96430.84;;;15.45;93.96
16461;BME280;8341;42.048;24.650;2023-04-25T07:08:04;96425.28;;;15.64;93.77
16461;BME280;8341;42.048;24.650;2023-04-25T07:10:31;96429.34;;;15.44;93.43
16461;BME280;8341;42.048;24.650;2023-04-25T07:12:58;96428.88;;;15.59;97.53
16461;BME280;8341;42.048;24.650;2023-04-25T07:15:25;96429.19;;;15.55;93.61
16461;BME280;8341;42.048;24.650;2023-04-25T07:17:51;96429.44;;;15.71;92.80
16461;BME280;8341;42.048;24.650;2023-04-25T07:20:18;96421.00;;;15.95;96.47
16461;BME280;8341;42.048;24.650;2023-04-25T07:22:46;96423.75;;;15.82;92.46
16461;BME280;8341;42.048;24.650;2023-04-25T07:25:13;96423.34;;;15.91;93.72
16461;BME280;8341;42.048;24.650;2023-04-25T07:27:39;96429.16;;;16.13;91.87
16461;BME280;8341;42.048;24.650;2023-04-25T07:30:07;96416.56;;;16.18;94.71
16461;BME280;8341;42.048;24.650;2023-04-25T07:32:34;96421.88;;;16.16;93.29
16461;BME280;8341;42.048;24.650;2023-04-25T07:35:01;96423.16;;;16.15;92.24
16461;BME280;8341;42.048;24.650;2023-04-25T07:37:28;96420.28;;;16.20;90.92
16461;BME280;8341;42.048;24.650;2023-04-25T07:39:56;96409.28;;;16.60;90.59
16461;BME280;8341;42.048;24.650;2023-04-25T07:42:23;96418.06;;;16.58;88.37
16461;BME280;8341;42.048;24.650;2023-04-25T07:44:50;96410.97;;;16.63;89.63
16461;BME280;8341;42.048;24.650;2023-04-25T07:47:17;96402.34;;;16.79;89.53
16461;BME280;8341;42.048;24.650;2023-04-25T07:49:45;96412.00;;;17.07;92.71
16461;BME280;8341;42.048;24.650;2023-04-25T07:52:12;96407.00;;;17.39;86.17
16461;BME280;8341;42.048;24.650;2023-04-25T07:54:39;96406.47;;;17.40;85.85
16461;BME280;8341;42.048;24.650;2023-04-25T07:57:07;96407.22;;;17.41;83.40
16461;BME280;8341;42.048;24.650;2023-04-25T07:59:33;96403.16;;;17.21;83.84
16461;BME280;8341;42.048;24.650;2023-04-25T08:02:01;96402.69;;;17.10;86.10
16461;BME280;8341;42.048;24.650;2023-04-25T08:04:27;96410.09;;;17.15;86.83
16461;BME280;8341;42.048;24.650;2023-04-25T08:06:54;96414.44;;;17.31;85.12
16461;BME280;8341;42.048;24.650;2023-04-25T08:09:21;96408.50;;;16.72;85.57
16461;BME280;8341;42.048;24.650;2023-04-25T08:11:48;96422.84;;;17.05;88.43
16461;BME280;8341;42.048;24.650;2023-04-25T08:14:16;96415.47;;;17.41;87.48
16461;BME280;8341;42.048;24.650;2023-04-25T08:16:43;96416.03;;;17.06;83.51
16461;BME280;8341;42.048;24.650;2023-04-25T08:19:10;96419.28;;;17.17;85.42
16461;BME280;8341;42.048;24.650;2023-04-25T08:21:37;96408.56;;;17.47;82.08
16461;BME280;8341;42.048;24.650;2023-04-25T08:24:04;96419.00;;;17.62;78.89
16461;BME280;8341;42.048;24.650;2023-04-25T08:26:31;96428.31;;;17.80;79.72
16461;BME280;8341;42.048;24.650;2023-04-25T08:28:58;96421.41;;;17.86;83.95
16461;BME280;8341;42.048;24.650;2023-04-25T08:31:26;96429.44;;;17.56;82.17
16461;BME280;8341;42.048;24.650;2023-04-25T08:33:53;96441.56;;;17.06;88.88
16461;BME280;8341;42.048;24.650;2023-04-25T08:36:20;96430.00;;;17.08;87.28
16461;BME280;8341;42.048;24.650;2023-04-25T08:38:46;96431.38;;;16.80;88.85
16461;BME280;8341;42.048;24.650;2023-04-25T08:41:13;96423.75;;;16.73;93.61
16461;BME280;8341;42.048;24.650;2023-04-25T08:43:42;96428.97;;;16.64;100.00
16461;BME280;8341;42.048;24.650;2023-04-25T08:46:11;96436.38;;;16.69;100.00
16461;BME280;8341;42.048;24.650;2023-04-25T08:48:40;96434.56;;;16.06;100.00
16461;BME280;8341;42.048;24.650;2023-04-25T08:51:10;96421.34;;;15.91;100.00
16461;BME280;8341;42.048;24.650;2023-04-25T08:53:41;96433.19;;;16.25;100.00
16461;BME280;8341;42.048;24.650;2023-04-25T08:56:10;96427.25;;;16.48;100.00
16461;BME280;8341;42.048;24.650;2023-04-25T08:58:38;96435.38;;;16.79;100.00
16461;BME280;8341;42.048;24.650;2023-04-25T09:01:06;96440.94;;;17.00;97.13
16461;BME280;8341;42.048;24.650;2023-04-25T09:03:32;96444.59;;;16.82;95.88
16461;BME280;8341;42.048;24.650;2023-04-25T09:06:01;96438.13;;;16.79;100.00
16461;BME280;8341;42.048;24.650;2023-04-25T09:08:28;96444.34;;;16.93;95.77
16461;BME280;8341;42.048;24.650;2023-04-25T09:10:55;96442.16;;;16.92;97.62
16461;BME280;8341;42.048;24.650;2023-04-25T09:13:27;96447.94;;;17.01;100.00
16461;BME280;8341;42.048;24.650;2023-04-25T09:15:56;96447.00;;;17.32;98.92
16461;BME280;8341;42.048;24.650;2023-04-25T09:18:23;96444.63;;;17.03;91.84
16461;BME280;8341;42.048;24.650;2023-04-25T09:20:52;96447.13;;;17.27;95.33
16461;BME280;8341;42.048;24.650;2023-04-25T09:23:21;96444.00;;;17.10;93.35
16461;BME280;8341;42.048;24.650;2023-04-25T09:25:50;96438.78;;;17.19;91.63
16461;BME280;8341;42.048;24.650;2023-04-25T09:28:23;96441.31;;;17.51;94.66
16461;BME280;8341;42.048;24.650;2023-04-25T09:30:54;96437.81;;;17.71;92.34
16461;BME280;8341;42.048;24.650;2023-04-25T09:33:27;96432.97;;;18.13;89.12
16461;BME280;8341;42.048;24.650;2023-04-25T09:36:01;96434.66;;;18.44;88.70
16461;BME280;8341;42.048;24.650;2023-04-25T09:38:31;96426.97;;;18.50;86.60
16461;BME280;8341;42.048;24.650;2023-04-25T09:40:59;96428.59;;;18.46;83.42
16461;BME280;8341;42.048;24.650;2023-04-25T09:43:27;96437.28;;;18.50;82.71
16461;BME280;8341;42.048;24.650;2023-04-25T09:45:54;96427.63;;;18.36;86.03
16461;BME280;8341;42.048;24.650;2023-04-25T09:48:23;96422.09;;;18.36;83.85
16461;BME280;8341;42.048;24.650;2023-04-25T09:51:04;96421.31;;;18.28;85.77
16461;BME280;8341;42.048;24.650;2023-04-25T09:53:33;96409.16;;;18.23;84.68
16461;BME280;8341;42.048;24.650;2023-04-25T09:56:03;96419.13;;;18.34;83.75
16461;BME280;8341;42.048;24.650;2023-04-25T09:58:32;96419.13;;;18.34;83.62
16461;BME280;8341;42.048;24.650;2023-04-25T10:01:01;96411.81;;;18.44;83.59
16461;BME280;8341;42.048;24.650;2023-04-25T10:03:29;96411.25;;;18.38;82.89
16461;BME280;8341;42.048;24.650;2023-04-25T10:05:59;96408.22;;;18.49;83.05
16461;BME280;8341;42.048;24.650;2023-04-25T10:08:31;96398.31;;;18.61;83.58
16461;BME280;8341;42.048;24.650;2023-04-25T10:11:01;96383.28;;;18.77;84.96
16461;BME280;8341;42.048;24.650;2023-04-25T10:13:30;96376.13;;;18.89;83.93
16461;BME280;8341;42.048;24.650;2023-04-25T10:15:57;96370.09;;;19.13;79.84
16461;BME280;8341;42.048;24.650;2023-04-25T10:18:25;96364.41;;;19.26;76.48
16461;BME280;8341;42.048;24.650;2023-04-25T10:20:53;96352.66;;;19.49;77.36
16461;BME280;8341;42.048;24.650;2023-04-25T10:23:21;96355.06;;;19.60;72.18
16461;BME280;8341;42.048;24.650;2023-04-25T10:25:48;96352.66;;;19.49;68.38
16461;BME280;8341;42.048;24.650;2023-04-25T10:28:17;96339.75;;;19.59;70.23
16461;BME280;8341;42.048;24.650;2023-04-25T10:30:59;96327.94;;;19.73;77.30
16461;BME280;8341;42.048;24.650;2023-04-25T10:33:32;96331.09;;;19.62;73.23
16461;BME280;8341;42.048;24.650;2023-04-25T10:36:08;96317.00;;;18.77;72.77
16461;BME280;8341;42.048;24.650;2023-04-25T10:38:36;96321.81;;;18.92;72.24
16461;BME280;8341;42.048;24.650;2023-04-25T10:41:03;96317.41;;;19.19;74.05
16461;BME280;8341;42.048;24.650;2023-04-25T10:43:37;96314.66;;;19.26;68.88
16461;BME280;8341;42.048;24.650;2023-04-25T10:46:17;96305.81;;;19.35;66.20
16461;BME280;8341;42.048;24.650;2023-04-25T10:48:47;96313.91;;;19.79;63.99
16461;BME280;8341;42.048;24.650;2023-04-25T10:51:20;96307.09;;;19.65;59.56
16461;BME280;8341;42.048;24.650;2023-04-25T10:53:48;96299.19;;;19.69;58.89
16461;BME280;8341;42.048;24.650;2023-04-25T10:56:24;96297.56;;;19.51;59.11
16461;BME280;8341;42.048;24.650;2023-04-25T10:59:03;96291.66;;;19.62;57.11
16461;BME280;8341;42.048;24.650;2023-04-25T11:01:36;96296.38;;;19.84;57.88
16461;BME280;8341;42.048;24.650;2023-04-25T11:04:03;96290.75;;;20.14;60.96
16461;BME280;8341;42.048;24.650;2023-04-25T11:06:37;96279.66;;;20.29;62.17
16461;BME280;8341;42.048;24.650;2023-04-25T11:09:10;96281.00;;;20.06;59.84
16461;BME280;8341;42.048;24.650;2023-04-25T11:11:39;96278.34;;;19.68;61.88
16461;BME280;8341;42.048;24.650;2023-04-25T11:14:07;96276.34;;;19.61;60.27
16461;BME280;8341;42.048;24.650;2023-04-25T11:16:34;96287.69;;;18.66;64.46
16461;BME280;8341;42.048;24.650;2023-04-25T11:19:01;96282.19;;;18.74;66.82
16461;BME280;8341;42.048;24.650;2023-04-25T11:21:30;96280.34;;;18.77;66.05
16461;BME280;8341;42.048;24.650;2023-04-25T11:23:57;96276.88;;;18.91;67.53
16461;BME280;8341;42.048;24.650;2023-04-25T11:26:24;96263.97;;;19.01;65.19
16461;BME280;8341;42.048;24.650;2023-04-25T11:28:51;96274.84;;;18.84;62.45
16461;BME280;8341;42.048;24.650;2023-04-25T11:31:21;96280.88;;;18.75;61.87
16461;BME280;8341;42.048;24.650;2023-04-25T11:33:48;96261.56;;;18.98;62.64
16461;BME280;8341;42.048;24.650;2023-04-25T11:36:15;96272.09;;;18.99;61.84
16461;BME280;8341;42.048;24.650;2023-04-25T11:38:42;96263.63;;;19.43;58.51
16461;BME280;8341;42.048;24.650;2023-04-25T11:41:08;96255.97;;;19.88;58.13
16461;BME280;8341;42.048;24.650;2023-04-25T11:43:35;96248.94;;;20.03;56.37
16461;BME280;8341;42.048;24.650;2023-04-25T11:46:06;96236.44;;;20.34;57.03
16461;BME280;8341;42.048;24.650;2023-04-25T11:48:38;96240.06;;;20.51;57.76
16461;BME280;8341;42.048;24.650;2023-04-25T11:51:05;96245.00;;;20.85;56.67
16461;BME280;8341;42.048;24.650;2023-04-25T11:53:32;96234.88;;;21.05;57.43
16461;BME280;8341;42.048;24.650;2023-04-25T11:55:59;96230.81;;;21.06;55.26
16461;BME280;8341;42.048;24.650;2023-04-25T11:58:26;96235.63;;;21.30;56.61
16461;BME280;8341;42.048;24.650;2023-04-25T12:00:53;96220.47;;;21.31;54.24
16461;BME280;8341;42.048;24.650;2023-04-25T12:03:23;96216.22;;;21.30;56.01
16461;BME280;8341;42.048;24.650;2023-04-25T12:06:02;96200.72;;;21.44;55.54
16461;BME280;8341;42.048;24.650;2023-04-25T12:08:29;96191.75;;;21.36;49.54
16461;BME280;8341;42.048;24.650;2023-04-25T12:10:56;96188.16;;;21.26;54.74
16461;BME280;8341;42.048;24.650;2023-04-25T12:13:24;96182.78;;;21.45;53.66
16461;BME280;8341;42.048;24.650;2023-04-25T12:15:54;96170.22;;;21.02;51.51
16461;BME280;8341;42.048;24.650;2023-04-25T12:18:23;96176.78;;;21.14;54.51
16461;BME280;8341;42.048;24.650;2023-04-25T12:20:54;96172.97;;;21.10;55.70
16461;BME280;8341;42.048;24.650;2023-04-25T12:23:25;96178.44;;;20.93;52.60
16461;BME280;8341;42.048;24.650;2023-04-25T12:25:53;96178.50;;;21.10;53.04
16461;BME280;8341;42.048;24.650;2023-04-25T12:28:21;96164.91;;;20.97;51.56
16461;BME280;8341;42.048;24.650;2023-04-25T12:30:55;96178.38;;;21.00;52.81
16461;BME280;8341;42.048;24.650;2023-04-25T12:33:23;96183.06;;;20.66;51.95
16461;BME280;8341;42.048;24.650;2023-04-25T12:35:50;96184.75;;;20.36;51.03
16461;BME280;8341;42.048;24.650;2023-04-25T12:38:25;96177.66;;;20.50;52.61
16461;BME280;8341;42.048;24.650;2023-04-25T12:40:53;96181.63;;;20.65;53.44
16461;BME280;8341;42.048;24.650;2023-04-25T12:43:20;96179.75;;;20.92;52.64
16461;BME280;8341;42.048;24.650;2023-04-25T12:45:47;96189.28;;;21.23;49.28
16461;BME280;8341;42.048;24.650;2023-04-25T12:48:15;96189.91;;;21.14;49.16
16461;BME280;8341;42.048;24.650;2023-04-25T12:50:42;96188.00;;;20.99;52.67
16461;BME280;8341;42.048;24.650;2023-04-25T12:53:09;96181.38;;;20.95;51.40
16461;BME280;8341;42.048;24.650;2023-04-25T12:55:38;96175.44;;;20.49;53.16
16461;BME280;8341;42.048;24.650;2023-04-25T12:58:05;96173.47;;;20.67;53.51